sensor_id;sensor_type;location;lat;lon;timestamp;pressure;altitude;pressure_sealevel;temperature;humidity
53011;BME280;42803;55.762;38.084;2024-03-02T00:02:06;100856.38;;;0.89;100.00
53011;BME280;42803;55.762;38.084;2024-03-02T00:04:35;100855.03;;;0.86;100.00
53011;BME280;42803;55.762;38.084;2024-03-02T00:07:06;100856.47;;;0.84;100.00
53011;BME280;42803;55.762;38.084;2024-03-02T00:09:36;100854.00;;;0.78;100.00
53011;BME280;42803;55.762;38.084;2024-03-02T00:12:06;100855.63;;;0.78;100.00
53011;BME280;42803;55.762;38.084;2024-03-02T00:14:35;100855.63;;;0.78;100.00
53011;BME280;42803;55.762;38.084;2024-03-02T00:17:04;100857.34;;;0.71;100.00
53011;BME280;42803;55.762;38.084;2024-03-02T00:19:34;100855.88;;;0.92;100.00
53011;BME280;42803;55.762;38.084;2024-03-02T00:22:09;100858.16;;;0.96;100.00
53011;BME280;42803;55.762;38.084;2024-03-02T00:24:39;100850.13;;;1.00;100.00
53011;BME280;42803;55.762;38.084;2024-03-02T00:27:13;100852.41;;;1.04;100.00
53011;BME280;42803;55.762;38.084;2024-03-02T00:29:43;100848.69;;;1.02;100.00
53011;BME280;42803;55.762;38.084;2024-03-02T00:32:13;100852.59;;;0.93;100.00
53011;BME280;42803;55.762;38.084;2024-03-02T00:34:45;100846.09;;;0.89;100.00
53011;BME280;42803;55.762;38.084;2024-03-02T00:37:15;100847.69;;;1.07;100.00
53011;BME280;42803;55.762;38.084;2024-03-02T00:39:49;100836.94;;;0.91;100.00
53011;BME280;42803;55.762;38.084;2024-03-02T00:42:18;100841.56;;;0.94;100.00
53011;BME280;42803;55.762;38.084;2024-03-02T00:44:48;100836.75;;;0.90;100.00
53011;BME280;42803;55.762;38.084;2024-03-02T00:47:17;100842.50;;;0.82;100.00
53011;BME280;42803;55.762;38.084;2024-03-02T00:49:47;100841.16;;;0.78;100.00
53011;BME280;42803;55.762;38.084;2024-03-02T00:52:17;100848.84;;;0.78;100.00
53011;BME280;42803;55.762;38.084;2024-03-02T00:54:47;100843.53;;;0.77;100.00
53011;BME280;42803;55.762;38.084;2024-03-02T00:57:16;100848.00;;;0.72;100.00
53011;BME280;42803;55.762;38.084;2024-03-02T00:59:45;100848.22;;;0.73;100.00
53011;BME280;42803;55.762;38.084;2024-03-02T01:02:16;100847.69;;;0.76;100.00
53011;BME280;42803;55.762;38.084;2024-03-02T01:04:48;100850.06;;;0.75;100.00
53011;BME280;42803;55.762;38.084;2024-03-02T01:07:18;100849.56;;;0.77;100.00
53011;BME280;42803;55.762;38.084;2024-03-02T01:09:47;100854.19;;;0.80;100.00
53011;BME280;42803;55.762;38.084;2024-03-02T01:12:17;100838.19;;;0.88;100.00
53011;BME280;42803;55.762;38.084;2024-03-02T01:14:49;100852.28;;;0.84;100.00
53011;BME280;42803;55.762;38.084;2024-03-02T01:17:18;100852.03;;;0.83;100.00
53011;BME280;42803;55.762;38.084;2024-03-02T01:19:47;100853.06;;;0.78;100.00
53011;BME280;42803;55.762;38.084;2024-03-02T01:22:18;100862.00;;;0.74;100.00
53011;BME280;42803;55.762;38.084;2024-03-02T01:24:53;100855.72;;;0.72;100.00
53011;BME280;42803;55.762;38.084;2024-03-02T01:27:22;100862.31;;;0.70;100.00
53011;BME280;42803;55.762;38.084;2024-03-02T01:29:51;100856.38;;;0.77;100.00
53011;BME280;42803;55.762;38.084;2024-03-02T01:32:22;100856.88;;;0.87;100.00
53011;BME280;42803;55.762;38.084;2024-03-02T01:34:50;100862.84;;;0.80;100.00
53011;BME280;42803;55.762;38.084;2024-03-02T01:37:20;100860.34;;;0.75;100.00
53011;BME280;42803;55.762;38.084;2024-03-02T01:39:49;100869.22;;;0.77;100.00
53011;BME280;42803;55.762;38.084;2024-03-02T01:42:19;100874.06;;;0.81;100.00
53011;BME280;42803;55.762;38.084;2024-03-02T01:44:48;100871.06;;;0.78;100.00
53011;BME280;42803;55.762;38.084;2024-03-02T01:47:17;100874.63;;;0.72;100.00
53011;BME280;42803;55.762;38.084;2024-03-02T01:49:47;100882.16;;;0.84;100.00
53011;BME280;42803;55.762;38.084;2024-03-02T01:52:19;100884.84;;;0.91;100.00
53011;BME280;42803;55.762;38.084;2024-03-02T01:54:49;100874.69;;;0.85;100.00
53011;BME280;42803;55.762;38.084;2024-03-02T01:57:19;100876.63;;;0.81;100.00
53011;BME280;42803;55.762;38.084;2024-03-02T01:59:51;100880.75;;;0.86;100.00
53011;BME280;42803;55.762;38.084;2024-03-02T02:02:20;100879.50;;;0.89;100.00
53011;BME280;42803;55.762;38.084;2024-03-02T02:04:50;100885.50;;;0.95;100.00
53011;BME280;42803;55.762;38.084;2024-03-02T02:07:20;100881.97;;;0.95;100.00
53011;BME280;42803;55.762;38.084;2024-03-02T02:09:49;100882.41;;;0.98;100.00
53011;BME280;42803;55.762;38.084;2024-03-02T02:12:19;100889.69;;;0.95;100.00
53011;BME280;42803;55.762;38.084;2024-03-02T02:14:48;100883.00;;;0.90;100.00
53011;BME280;42803;55.762;38.084;2024-03-02T02:17:18;100886.81;;;0.86;100.00
53011;BME280;42803;55.762;38.084;2024-03-02T02:19:47;100883.84;;;0.96;100.00
53011;BME280;42803;55.762;38.084;2024-03-02T02:22:18;100889.91;;;0.96;100.00
53011;BME280;42803;55.762;38.084;2024-03-02T02:24:47;100885.88;;;0.86;100.00
53011;BME280;42803;55.762;38.084;2024-03-02T02:27:16;100889.34;;;0.73;100.00
53011;BME280;42803;55.762;38.084;2024-03-02T02:29:45;100893.97;;;0.76;100.00
53011;BME280;42803;55.762;38.084;2024-03-02T02:32:15;100896.03;;;0.79;100.00
53011;BME280;42803;55.762;38.084;2024-03-02T02:34:45;100893.47;;;0.79;100.00
53011;BME280;42803;55.762;38.084;2024-03-02T02:37:14;100897.25;;;0.75;100.00
53011;BME280;42803;55.762;38.084;2024-03-02T02:39:44;100896.03;;;0.79;100.00
53011;BME280;42803;55.762;38.084;2024-03-02T02:42:14;100891.63;;;0.78;100.00
53011;BME280;42803;55.762;38.084;2024-03-02T02:44:43;100892.34;;;0.77;100.00
53011;BME280;42803;55.762;38.084;2024-03-02T02:47:12;100888.44;;;0.73;100.00
53011;BME280;42803;55.762;38.084;2024-03-02T02:49:41;100889.78;;;0.77;100.00
53011;BME280;42803;55.762;38.084;2024-03-02T02:52:11;100889.94;;;0.65;100.00
53011;BME280;42803;55.762;38.084;2024-03-02T02:54:40;100890.25;;;0.61;100.00
53011;BME280;42803;55.762;38.084;2024-03-02T02:57:11;100886.72;;;0.61;100.00
53011;BME280;42803;55.762;38.084;2024-03-02T02:59:40;100887.25;;;0.58;100.00
53011;BME280;42803;55.762;38.084;2024-03-02T03:02:09;100892.81;;;0.61;100.00
53011;BME280;42803;55.762;38.084;2024-03-02T03:04:40;100889.50;;;0.62;100.00
53011;BME280;42803;55.762;38.084;2024-03-02T03:07:09;100886.94;;;0.62;100.00
53011;BME280;42803;55.762;38.084;2024-03-02T03:09:38;100889.22;;;0.66;100.00
53011;BME280;42803;55.762;38.084;2024-03-02T03:12:08;100880.66;;;0.60;100.00
53011;BME280;42803;55.762;38.084;2024-03-02T03:14:40;100883.53;;;0.56;100.00
53011;BME280;42803;55.762;38.084;2024-03-02T03:17:09;100884.28;;;0.68;100.00
53011;BME280;42803;55.762;38.084;2024-03-02T03:19:38;100884.81;;;0.65;100.00
53011;BME280;42803;55.762;38.084;2024-03-02T03:22:08;100877.28;;;0.67;100.00
53011;BME280;42803;55.762;38.084;2024-03-02T03:24:37;100882.44;;;0.67;100.00
53011;BME280;42803;55.762;38.084;2024-03-02T03:27:06;100882.75;;;0.76;100.00
53011;BME280;42803;55.762;38.084;2024-03-02T03:29:37;100880.50;;;0.71;100.00
53011;BME280;42803;55.762;38.084;2024-03-02T03:32:07;100885.63;;;0.71;100.00
53011;BME280;42803;55.762;38.084;2024-03-02T03:34:36;100888.50;;;0.67;100.00
53011;BME280;42803;55.762;38.084;2024-03-02T03:37:05;100879.00;;;0.61;100.00
53011;BME280;42803;55.762;38.084;2024-03-02T03:39:35;100886.09;;;0.56;100.00
53011;BME280;42803;55.762;38.084;2024-03-02T03:42:05;100885.78;;;0.60;100.00
53011;BME280;42803;55.762;38.084;2024-03-02T03:44:34;100887.78;;;0.68;100.00
53011;BME280;42803;55.762;38.084;2024-03-02T03:47:05;100884.06;;;0.66;100.00
53011;BME280;42803;55.762;38.084;2024-03-02T03:49:34;100881.88;;;0.57;100.00
53011;BME280;42803;55.762;38.084;2024-03-02T03:52:04;100890.91;;;0.47;100.00
53011;BME280;42803;55.762;38.084;2024-03-02T03:54:33;100890.16;;;0.48;100.00
53011;BME280;42803;55.762;38.084;2024-03-02T03:57:05;100889.25;;;0.48;100.00
53011;BME280;42803;55.762;38.084;2024-03-02T03:59:34;100893.53;;;0.42;100.00
53011;BME280;42803;55.762;38.084;2024-03-02T04:02:06;100891.25;;;0.38;100.00
53011;BME280;42803;55.762;38.084;2024-03-02T04:04:36;100888.22;;;0.53;100.00
53011;BME280;42803;55.762;38.084;2024-03-02T04:07:05;100890.13;;;0.67;100.00
53011;BME280;42803;55.762;38.084;2024-03-02T04:09:34;100893.19;;;0.64;100.00
53011;BME280;42803;55.762;38.084;2024-03-02T04:12:04;100890.50;;;0.57;100.00
53011;BME280;42803;55.762;38.084;2024-03-02T04:14:33;100893.78;;;0.56;100.00
53011;BME280;42803;55.762;38.084;2024-03-02T04:17:03;100890.94;;;0.60;100.00
53011;BME280;42803;55.762;38.084;2024-03-02T04:19:33;100896.06;;;0.60;100.00
53011;BME280;42803;55.762;38.084;2024-03-02T04:22:03;100892.69;;;0.54;100.00
53011;BME280;42803;55.762;38.084;2024-03-02T04:24:44;100890.03;;;0.41;100.00
53011;BME280;42803;55.762;38.084;2024-03-02T04:27:14;100893.94;;;0.45;100.00
53011;BME280;42803;55.762;38.084;2024-03-02T04:29:43;100891.53;;;0.34;100.00
53011;BME280;42803;55.762;38.084;2024-03-02T04:32:12;100892.84;;;0.24;100.00
53011;BME280;42803;55.762;38.084;2024-03-02T04:34:43;100891.94;;;0.24;100.00
53011;BME280;42803;55.762;38.084;2024-03-02T04:37:12;100893.56;;;0.23;100.00
53011;BME280;42803;55.762;38.084;2024-03-02T04:39:42;100890.72;;;0.28;100.00
53011;BME280;42803;55.762;38.084;2024-03-02T04:42:11;100893.28;;;0.28;100.00
53011;BME280;42803;55.762;38.084;2024-03-02T04:44:40;100888.97;;;0.34;100.00
53011;BME280;42803;55.762;38.084;2024-03-02T04:47:09;100897.09;;;0.37;100.00
53011;BME280;42803;55.762;38.084;2024-03-02T04:49:39;100891.25;;;0.38;100.00
53011;BME280;42803;55.762;38.084;2024-03-02T04:52:09;100890.28;;;0.43;100.00
53011;BME280;42803;55.762;38.084;2024-03-02T04:54:39;100892.25;;;0.51;100.00
53011;BME280;42803;55.762;38.084;2024-03-02T04:57:22;100880.03;;;0.56;100.00
53011;BME280;42803;55.762;38.084;2024-03-02T04:59:51;100883.22;;;0.60;100.00
53011;BME280;42803;55.762;38.084;2024-03-02T05:02:20;100882.53;;;0.61;100.00
53011;BME280;42803;55.762;38.084;2024-03-02T05:04:49;100887.16;;;0.64;100.00
53011;BME280;42803;55.762;38.084;2024-03-02T05:07:20;100888.50;;;0.67;100.00
53011;BME280;42803;55.762;38.084;2024-03-02T05:09:49;100892.34;;;0.77;100.00
53011;BME280;42803;55.762;38.084;2024-03-02T05:12:19;100891.19;;;0.75;100.00
53011;BME280;42803;55.762;38.084;2024-03-02T05:15:02;100897.75;;;0.72;100.00
53011;BME280;42803;55.762;38.084;2024-03-02T05:17:32;100894.34;;;0.66;100.00
53011;BME280;42803;55.762;38.084;2024-03-02T05:20:01;100898.78;;;0.67;100.00
53011;BME280;42803;55.762;38.084;2024-03-02T05:22:33;100897.41;;;0.64;100.00
53011;BME280;42803;55.762;38.084;2024-03-02T05:25:03;100897.22;;;0.62;100.00
53011;BME280;42803;55.762;38.084;2024-03-02T05:27:33;100894.41;;;0.61;100.00
53011;BME280;42803;55.762;38.084;2024-03-02T05:30:02;100889.94;;;0.65;100.00
53011;BME280;42803;55.762;38.084;2024-03-02T05:32:34;100883.91;;;0.78;100.00
53011;BME280;42803;55.762;38.084;2024-03-02T05:35:04;100892.25;;;0.82;100.00
53011;BME280;42803;55.762;38.084;2024-03-02T05:37:35;100896.16;;;0.86;100.00
53011;BME280;42803;55.762;38.084;2024-03-02T05:40:05;100901.44;;;0.93;100.00
53011;BME280;42803;55.762;38.084;2024-03-02T05:42:36;100892.25;;;0.95;100.00
53011;BME280;42803;55.762;38.084;2024-03-02T05:45:06;100887.13;;;0.95;100.00
53011;BME280;42803;55.762;38.084;2024-03-02T05:47:36;100887.78;;;1.00;100.00
53011;BME280;42803;55.762;38.084;2024-03-02T05:50:06;100886.13;;;1.13;100.00
53011;BME280;42803;55.762;38.084;2024-03-02T05:52:37;100888.31;;;1.23;100.00
53011;BME280;42803;55.762;38.084;2024-03-02T05:55:07;100886.84;;;1.37;100.00
53011;BME280;42803;55.762;38.084;2024-03-02T05:57:36;100891.09;;;1.37;100.00
53011;BME280;42803;55.762;38.084;2024-03-02T06:00:27;100891.41;;;1.45;100.00
53011;BME280;42803;55.762;38.084;2024-03-02T06:02:57;100900.47;;;1.49;100.00
53011;BME280;42803;55.762;38.084;2024-03-02T06:05:26;100908.50;;;1.58;100.00
53011;BME280;42803;55.762;38.084;2024-03-02T06:07:57;100907.88;;;1.53;100.00
53011;BME280;42803;55.762;38.084;2024-03-02T06:10:26;100904.78;;;1.56;100.00
53011;BME280;42803;55.762;38.084;2024-03-02T06:12:55;100913.13;;;1.48;100.00
53011;BME280;42803;55.762;38.084;2024-03-02T06:15:26;100903.75;;;1.48;100.00
53011;BME280;42803;55.762;38.084;2024-03-02T06:17:56;100915.06;;;1.43;100.00
53011;BME280;42803;55.762;38.084;2024-03-02T06:20:25;100911.78;;;1.44;100.00
53011;BME280;42803;55.762;38.084;2024-03-02T06:22:54;100909.00;;;1.55;100.00
53011;BME280;42803;55.762;38.084;2024-03-02T06:25:25;100916.19;;;1.70;100.00
53011;BME280;42803;55.762;38.084;2024-03-02T06:27:54;100908.91;;;1.61;100.00
53011;BME280;42803;55.762;38.084;2024-03-02T06:30:23;100915.19;;;1.76;100.00
53011;BME280;42803;55.762;38.084;2024-03-02T06:32:53;100914.22;;;1.75;100.00
53011;BME280;42803;55.762;38.084;2024-03-02T06:35:22;100919.19;;;1.74;100.00
53011;BME280;42803;55.762;38.084;2024-03-02T06:37:51;100918.69;;;1.76;100.00
53011;BME280;42803;55.762;38.084;2024-03-02T06:40:21;100907.47;;;1.76;100.00
53011;BME280;42803;55.762;38.084;2024-03-02T06:42:52;100916.63;;;1.74;100.00
53011;BME280;42803;55.762;38.084;2024-03-02T06:45:21;100921.13;;;1.82;100.00
53011;BME280;42803;55.762;38.084;2024-03-02T06:47:50;100916.09;;;1.89;100.00
53011;BME280;42803;55.762;38.084;2024-03-02T06:50:20;100918.25;;;1.99;100.00
53011;BME280;42803;55.762;38.084;2024-03-02T06:52:49;100922.53;;;2.05;100.00
53011;BME280;42803;55.762;38.084;2024-03-02T06:55:18;100916.69;;;2.06;100.00
53011;BME280;42803;55.762;38.084;2024-03-02T06:57:47;100915.31;;;2.15;100.00
53011;BME280;42803;55.762;38.084;2024-03-02T07:00:19;100920.56;;;2.23;100.00
53011;BME280;42803;55.762;38.084;2024-03-02T07:02:49;100922.50;;;2.31;100.00
53011;BME280;42803;55.762;38.084;2024-03-02T07:05:18;100924.66;;;2.28;100.00
53011;BME280;42803;55.762;38.084;2024-03-02T07:07:49;100920.09;;;2.32;100.00
53011;BME280;42803;55.762;38.084;2024-03-02T07:10:19;100924.56;;;2.33;100.00
53011;BME280;42803;55.762;38.084;2024-03-02T07:12:48;100921.53;;;2.43;100.00
53011;BME280;42803;55.762;38.084;2024-03-02T07:15:18;100919.34;;;2.46;99.86
53011;BME280;42803;55.762;38.084;2024-03-02T07:18:05;100912.44;;;2.52;99.46
53011;BME280;42803;55.762;38.084;2024-03-02T07:20:51;100914.59;;;2.49;99.16
53011;BME280;42803;55.762;38.084;2024-03-02T07:23:21;100918.16;;;2.37;98.97
53011;BME280;42803;55.762;38.084;2024-03-02T07:25:54;100915.25;;;2.41;98.74
53011;BME280;42803;55.762;38.084;2024-03-02T07:28:27;100928.06;;;2.34;97.94
53011;BME280;42803;55.762;38.084;2024-03-02T07:31:01;100919.25;;;2.39;97.79
53011;BME280;42803;55.762;38.084;2024-03-02T07:33:32;100912.53;;;2.47;97.13
53011;BME280;42803;55.762;38.084;2024-03-02T07:36:02;100913.94;;;2.57;97.25
53011;BME280;42803;55.762;38.084;2024-03-02T07:38:32;100897.56;;;2.77;96.85
53011;BME280;42803;55.762;38.084;2024-03-02T07:41:03;100906.44;;;2.79;96.32
53011;BME280;42803;55.762;38.084;2024-03-02T07:43:33;100904.31;;;2.69;94.46
53011;BME280;42803;55.762;38.084;2024-03-02T07:46:03;100894.41;;;2.72;94.77
53011;BME280;42803;55.762;38.084;2024-03-02T07:48:34;100900.72;;;2.81;93.99
53011;BME280;42803;55.762;38.084;2024-03-02T07:51:03;100899.63;;;2.79;92.97
53011;BME280;42803;55.762;38.084;2024-03-02T07:53:33;100897.06;;;2.79;92.99
53011;BME280;42803;55.762;38.084;2024-03-02T07:56:22;100895.56;;;2.81;92.92
53011;BME280;42803;55.762;38.084;2024-03-02T07:58:52;100888.44;;;2.86;92.01
53011;BME280;42803;55.762;38.084;2024-03-02T08:01:22;100893.25;;;2.90;91.55
53011;BME280;42803;55.762;38.084;2024-03-02T08:03:52;100890.41;;;3.01;90.94
53011;BME280;42803;55.762;38.084;2024-03-02T08:06:23;100895.47;;;2.87;90.90
53011;BME280;42803;55.762;38.084;2024-03-02T08:08:56;100893.25;;;2.90;90.95
53011;BME280;42803;55.762;38.084;2024-03-02T08:11:26;100900.88;;;2.96;90.94
53011;BME280;42803;55.762;38.084;2024-03-02T08:13:57;100894.47;;;2.99;90.14
53011;BME280;42803;55.762;38.084;2024-03-02T08:16:28;100897.59;;;3.24;90.17
53011;BME280;42803;55.762;38.084;2024-03-02T08:18:57;100897.25;;;3.28;89.01
53011;BME280;42803;55.762;38.084;2024-03-02T08:21:27;100897.84;;;3.32;88.22
53011;BME280;42803;55.762;38.084;2024-03-02T08:23:58;100895.97;;;3.31;88.22
53011;BME280;42803;55.762;38.084;2024-03-02T08:26:29;100890.97;;;3.53;87.67
53011;BME280;42803;55.762;38.084;2024-03-02T08:29:16;100893.38;;;3.58;86.73
53011;BME280;42803;55.762;38.084;2024-03-02T08:31:47;100885.50;;;3.64;86.65
53011;BME280;42803;55.762;38.084;2024-03-02T08:34:17;100887.25;;;3.85;86.04
53011;BME280;42803;55.762;38.084;2024-03-02T08:36:49;100889.97;;;3.72;86.55
53011;BME280;42803;55.762;38.084;2024-03-02T08:39:18;100894.56;;;3.67;86.52
53011;BME280;42803;55.762;38.084;2024-03-02T08:41:48;100892.59;;;3.79;86.29
53011;BME280;42803;55.762;38.084;2024-03-02T08:44:18;100901.22;;;3.73;86.71
53011;BME280;42803;55.762;38.084;2024-03-02T08:46:48;100903.63;;;3.71;86.30
53011;BME280;42803;55.762;38.084;2024-03-02T08:49:18;100895.28;;;3.39;87.03
53011;BME280;42803;55.762;38.084;2024-03-02T08:51:47;100891.50;;;3.50;87.28
53011;BME280;42803;55.762;38.084;2024-03-02T08:54:23;100894.75;;;3.69;87.30
53011;BME280;42803;55.762;38.084;2024-03-02T08:56:52;100891.06;;;3.67;86.99
53011;BME280;42803;55.762;38.084;2024-03-02T08:59:21;100894.56;;;3.67;87.57
53011;BME280;42803;55.762;38.084;2024-03-02T09:01:54;100894.00;;;3.63;87.12
53011;BME280;42803;55.762;38.084;2024-03-02T09:04:23;100891.63;;;3.72;87.08
53011;BME280;42803;55.762;38.084;2024-03-02T09:06:55;100893.09;;;3.70;86.91
53011;BME280;42803;55.762;38.084;2024-03-02T09:09:24;100895.72;;;3.77;86.66
53011;BME280;42803;55.762;38.084;2024-03-02T09:11:53;100888.22;;;3.85;86.14
53011;BME280;42803;55.762;38.084;2024-03-02T09:14:25;100894.22;;;3.72;86.56
53011;BME280;42803;55.762;38.084;2024-03-02T09:16:56;100898.06;;;3.68;86.20
53011;BME280;42803;55.762;38.084;2024-03-02T09:19:25;100895.97;;;3.51;86.35
53011;BME280;42803;55.762;38.084;2024-03-02T09:21:55;100901.13;;;3.51;87.33
53011;BME280;42803;55.762;38.084;2024-03-02T09:24:26;100899.81;;;3.55;88.66
53011;BME280;42803;55.762;38.084;2024-03-02T09:26:56;100906.22;;;3.44;88.21
53011;BME280;42803;55.762;38.084;2024-03-02T09:29:25;100903.19;;;3.34;88.05
53011;BME280;42803;55.762;38.084;2024-03-02T09:31:55;100900.28;;;3.38;86.77
53011;BME280;42803;55.762;38.084;2024-03-02T09:34:26;100901.63;;;3.22;85.86
53011;BME280;42803;55.762;38.084;2024-03-02T09:36:55;100889.94;;;3.38;85.24
53011;BME280;42803;55.762;38.084;2024-03-02T09:39:24;100891.50;;;3.23;85.43
53011;BME280;42803;55.762;38.084;2024-03-02T09:41:54;100888.06;;;3.30;84.35
53011;BME280;42803;55.762;38.084;2024-03-02T09:44:23;100890.34;;;3.14;85.40
53011;BME280;42803;55.762;38.084;2024-03-02T09:46:53;100893.31;;;3.17;85.13
53011;BME280;42803;55.762;38.084;2024-03-02T09:49:24;100886.91;;;3.28;84.63
53011;BME280;42803;55.762;38.084;2024-03-02T09:51:53;100888.56;;;3.27;84.34
53011;BME280;42803;55.762;38.084;2024-03-02T09:54:23;100886.91;;;3.21;84.25
53011;BME280;42803;55.762;38.084;2024-03-02T09:56:52;100892.53;;;3.38;84.45
53011;BME280;42803;55.762;38.084;2024-03-02T09:59:22;100881.75;;;3.28;83.92
53011;BME280;42803;55.762;38.084;2024-03-02T10:01:58;100889.13;;;3.25;84.11
53011;BME280;42803;55.762;38.084;2024-03-02T10:04:30;100888.28;;;3.11;84.89
53011;BME280;42803;55.762;38.084;2024-03-02T10:07:13;100886.19;;;3.02;84.43
53011;BME280;42803;55.762;38.084;2024-03-02T10:09:44;100898.47;;;2.97;84.47
53011;BME280;42803;55.762;38.084;2024-03-02T10:12:15;100885.66;;;3.04;84.47
53011;BME280;42803;55.762;38.084;2024-03-02T10:14:45;100883.13;;;3.11;84.24
53011;BME280;42803;55.762;38.084;2024-03-02T10:17:17;100875.91;;;3.29;83.76
53011;BME280;42803;55.762;38.084;2024-03-02T10:19:48;100878.75;;;3.45;82.87
53011;BME280;42803;55.762;38.084;2024-03-02T10:22:17;100887.72;;;3.34;82.90
53011;BME280;42803;55.762;38.084;2024-03-02T10:24:47;100884.09;;;3.46;83.57
53011;BME280;42803;55.762;38.084;2024-03-02T10:27:26;100880.75;;;3.67;82.67
53011;BME280;42803;55.762;38.084;2024-03-02T10:29:57;100883.81;;;3.57;82.40
53011;BME280;42803;55.762;38.084;2024-03-02T10:32:30;100884.53;;;3.56;82.70
53011;BME280;42803;55.762;38.084;2024-03-02T10:35:01;100883.69;;;3.43;81.95
53011;BME280;42803;55.762;38.084;2024-03-02T10:37:32;100887.56;;;3.39;82.50
53011;BME280;42803;55.762;38.084;2024-03-02T10:40:05;100878.53;;;3.36;82.45
53011;BME280;42803;55.762;38.084;2024-03-02T10:42:37;100873.13;;;3.61;82.66
53011;BME280;42803;55.762;38.084;2024-03-02T10:45:08;100873.53;;;3.64;81.37
53011;BME280;42803;55.762;38.084;2024-03-02T10:47:38;100874.09;;;3.69;81.55
53011;BME280;42803;55.762;38.084;2024-03-02T10:50:09;100869.56;;;3.88;83.22
53011;BME280;42803;55.762;38.084;2024-03-02T10:52:45;100868.94;;;4.10;81.68
53011;BME280;42803;55.762;38.084;2024-03-02T10:55:15;100867.47;;;4.12;81.02
53011;BME280;42803;55.762;38.084;2024-03-02T10:57:50;100870.47;;;4.30;81.04
53011;BME280;42803;55.762;38.084;2024-03-02T11:00:23;100870.28;;;4.28;79.45
53011;BME280;42803;55.762;38.084;2024-03-02T11:03:05;100868.41;;;4.20;79.78
53011;BME280;42803;55.762;38.084;2024-03-02T11:05:41;100869.09;;;4.12;79.65
53011;BME280;42803;55.762;38.084;2024-03-02T11:08:13;100866.53;;;4.12;80.10
53011;BME280;42803;55.762;38.084;2024-03-02T11:10:48;100868.94;;;4.10;79.33
53011;BME280;42803;55.762;38.084;2024-03-02T11:13:22;100873.53;;;4.06;79.51
53011;BME280;42803;55.762;38.084;2024-03-02T11:15:55;100875.16;;;3.98;79.62
53011;BME280;42803;55.762;38.084;2024-03-02T11:18:28;100874.56;;;3.86;80.22
53011;BME280;42803;55.762;38.084;2024-03-02T11:21:03;100881.44;;;3.93;80.20
53011;BME280;42803;55.762;38.084;2024-03-02T11:23:33;100881.59;;;3.95;80.68
53011;BME280;42803;55.762;38.084;2024-03-02T11:26:18;100880.03;;;3.75;80.55
53011;BME280;42803;55.762;38.084;2024-03-02T11:28:48;100879.81;;;3.74;81.05
53011;BME280;42803;55.762;38.084;2024-03-02T11:31:17;100892.13;;;3.62;81.50
53011;BME280;42803;55.762;38.084;2024-03-02T11:34:17;100888.88;;;3.77;80.84
53011;BME280;42803;55.762;38.084;2024-03-02T11:36:49;100897.53;;;3.71;80.68
53011;BME280;42803;55.762;38.084;2024-03-02T11:39:19;100893.81;;;3.69;81.63
53011;BME280;42803;55.762;38.084;2024-03-02T11:41:49;100880.97;;;4.17;84.48
53011;BME280;42803;55.762;38.084;2024-03-02T11:44:20;100884.88;;;4.35;81.64
53011;BME280;42803;55.762;38.084;2024-03-02T11:46:52;100889.72;;;4.53;80.83
53011;BME280;42803;55.762;38.084;2024-03-02T11:49:36;100877.56;;;4.59;79.54
53011;BME280;42803;55.762;38.084;2024-03-02T11:52:09;100881.22;;;4.47;79.39
53011;BME280;42803;55.762;38.084;2024-03-02T11:54:40;100877.53;;;4.52;79.37
53011;BME280;42803;55.762;38.084;2024-03-02T11:57:15;100875.81;;;4.38;78.97
53011;BME280;42803;55.762;38.084;2024-03-02T12:00:03;100882.56;;;4.02;77.44
53011;BME280;42803;55.762;38.084;2024-03-02T12:02:34;100876.41;;;3.53;79.02
53011;BME280;42803;55.762;38.084;2024-03-02T12:05:04;100883.34;;;3.40;79.42
53011;BME280;42803;55.762;38.084;2024-03-02T12:07:36;100887.75;;;3.14;79.72
53011;BME280;42803;55.762;38.084;2024-03-02T12:10:08;100887.59;;;3.20;79.85
53011;BME280;42803;55.762;38.084;2024-03-02T12:12:38;100890.41;;;3.21;80.08
53011;BME280;42803;55.762;38.084;2024-03-02T12:15:07;100894.94;;;3.16;80.52
53011;BME280;42803;55.762;38.084;2024-03-02T12:17:38;100896.34;;;3.07;80.53
53011;BME280;42803;55.762;38.084;2024-03-02T12:20:08;100890.56;;;2.96;80.82
53011;BME280;42803;55.762;38.084;2024-03-02T12:22:42;100895.81;;;2.90;81.72
53011;BME280;42803;55.762;38.084;2024-03-02T12:25:12;100895.47;;;2.87;81.47
53011;BME280;42803;55.762;38.084;2024-03-02T12:27:42;100897.56;;;2.97;81.32
53011;BME280;42803;55.762;38.084;2024-03-02T12:30:12;100904.44;;;3.03;81.04
53011;BME280;42803;55.762;38.084;2024-03-02T12:32:41;100904.69;;;2.92;81.14
53011;BME280;42803;55.762;38.084;2024-03-02T12:35:11;100910.53;;;2.84;81.85
53011;BME280;42803;55.762;38.084;2024-03-02T12:37:47;100905.03;;;2.88;81.74
53011;BME280;42803;55.762;38.084;2024-03-02T12:40:35;100904.84;;;2.86;81.64
53011;BME280;42803;55.762;38.084;2024-03-02T12:43:05;100901.28;;;2.79;81.72
53011;BME280;42803;55.762;38.084;2024-03-02T12:45:35;100911.97;;;2.82;81.80
53011;BME280;42803;55.762;38.084;2024-03-02T12:48:05;100901.28;;;2.79;81.75
53011;BME280;42803;55.762;38.084;2024-03-02T12:50:35;100909.31;;;2.75;81.88
53011;BME280;42803;55.762;38.084;2024-03-02T12:53:07;100902.22;;;2.79;82.51
53011;BME280;42803;55.762;38.084;2024-03-02T12:55:36;100898.88;;;2.80;82.72
53011;BME280;42803;55.762;38.084;2024-03-02T12:58:06;100893.34;;;2.77;82.93
53011;BME280;42803;55.762;38.084;2024-03-02T13:00:35;100893.84;;;2.75;82.82
53011;BME280;42803;55.762;38.084;2024-03-02T13:03:09;100897.56;;;2.77;83.26
53011;BME280;42803;55.762;38.084;2024-03-02T13:05:40;100904.03;;;2.60;83.51